Time;durP1;ratioP1;P1;durP2;ratioP2;P2;SDS_P1;SDS_P2;PMS_P1;PMS_P2;Temp;Humidity;BMP_temperature;BMP_pressure;BME280_temperature;BME280_humidity;BME280_pressure;Samples;Min_cycle;Max_cycle;Signal;HPM_P1;HPM_P2
2022/01/14 00:01:05;;;;;;;131.48;24.55;;;5.80;99.90;;;;;;5105681;28;20094;-71
2022/01/14 00:03:31;;;;;;;113.03;24.50;;;5.80;99.90;;;;;;5071013;28;20131;-72
2022/01/14 00:05:57;;;;;;;121.88;24.58;;;5.80;99.90;;;;;;5072836;28;20044;-70
2022/01/14 00:08:22;;;;;;;109.68;24.05;;;5.90;99.90;;;;;;5105273;28;20040;-70
2022/01/14 00:10:49;;;;;;;112.95;23.30;;;5.80;99.90;;;;;;5088184;28;20087;-70
2022/01/14 00:13:43;;;;;;;133.95;25.42;;;5.80;99.90;;;;;;5071607;28;20052;-70
2022/01/14 00:16:02;;;;;;;;;;;5.90;99.90;;;;;;5073267;28;20492;-71
2022/01/14 00:18:28;;;;;;;113.68;23.77;;;5.90;99.90;;;;;;5071846;28;19920;-70
2022/01/14 00:20:54;;;;;;;119.82;24.42;;;5.80;99.90;;;;;;5105416;28;20090;-70
2022/01/14 00:23:26;;;;;;;111.13;24.48;;;5.90;99.90;;;;;;5081232;28;20047;-71
2022/01/14 00:34:05;;;;;;;126.10;23.95;;;5.90;99.90;;;;;;5095323;28;20052;-70
2022/01/14 00:36:31;;;;;;;117.97;23.50;;;5.90;99.90;;;;;;5111550;28;20046;-70
2022/01/14 00:38:57;;;;;;;112.90;22.35;;;5.80;99.90;;;;;;5094614;28;20047;-71
2022/01/14 00:41:23;;;;;;;120.50;25.35;;;5.80;99.90;;;;;;5094482;28;20400;-70
2022/01/14 00:43:52;;;;;;;124.97;24.90;;;5.80;99.90;;;;;;5095120;28;20075;-70
2022/01/14 00:46:18;;;;;;;153.75;27.42;;;5.80;99.90;;;;;;5112738;28;20065;-71
2022/01/14 00:48:44;;;;;;;122.20;24.40;;;5.80;99.90;;;;;;5094940;28;20483;-70
2022/01/14 00:51:09;;;;;;;104.38;23.05;;;5.80;99.90;;;;;;5094745;28;20050;-70
2022/01/14 00:53:35;;;;;;;129.52;25.63;;;5.80;99.90;;;;;;5112350;28;20040;-71
2022/01/14 00:56:20;;;;;;;128.07;24.98;;;5.80;99.90;;;;;;5112948;28;20051;-70
2022/01/14 01:01:30;;;;;;;133.98;24.73;;;5.80;99.90;;;;;;5111547;28;20044;-70
2022/01/14 01:03:56;;;;;;;132.05;25.42;;;5.80;99.90;;;;;;5113016;28;20135;-70
2022/01/14 01:06:22;;;;;;;111.65;25.27;;;5.80;99.90;;;;;;5094087;28;20525;-70
2022/01/14 01:08:51;;;;;;;122.13;25.20;;;5.80;99.90;;;;;;5078224;28;20051;-71
2022/01/14 01:11:23;;;;;;;115.95;24.00;;;5.70;99.90;;;;;;5112561;28;20048;-71
2022/01/14 01:13:59;;;;;;;137.93;26.77;;;5.80;99.90;;;;;;5112472;28;20067;-70
2022/01/14 01:16:25;;;;;;;114.80;25.85;;;5.80;99.90;;;;;;5112983;28;20079;-71
2022/01/14 01:18:50;;;;;;;93.63;22.23;;;5.70;99.90;;;;;;5094182;28;20227;-71
2022/01/14 01:21:16;;;;;;;118.68;23.73;;;5.80;99.90;;;;;;5077756;28;20046;-69
2022/01/14 01:23:42;;;;;;;100.30;22.95;;;5.80;99.90;;;;;;5112233;28;20084;-71
2022/01/14 01:26:16;;;;;;;123.38;24.25;;;5.80;99.90;;;;;;5112832;28;20062;-70
2022/01/14 01:29:02;;;;;;;114.38;25.35;;;5.80;99.90;;;;;;5112694;28;20176;-71
2022/01/14 01:31:41;;;;;;;102.57;23.27;;;5.80;99.90;;;;;;5112761;28;20122;-72
2022/01/14 01:34:18;;;;;;;105.13;24.30;;;5.80;99.90;;;;;;5093911;28;20047;-72
2022/01/14 01:36:50;;;;;;;101.03;24.25;;;5.80;99.90;;;;;;5116649;28;20040;-73
2022/01/14 01:39:19;;;;;;;102.05;24.25;;;5.80;99.90;;;;;;5116389;28;20043;-72
2022/01/14 01:41:49;;;;;;;100.72;22.98;;;5.80;99.90;;;;;;5097468;28;20105;-73
2022/01/14 01:44:16;;;;;;;103.70;23.40;;;5.80;99.90;;;;;;5115167;28;20391;-72
2022/01/14 01:46:46;;;;;;;117.78;24.02;;;5.90;99.90;;;;;;5080970;28;20083;-73
2022/01/14 01:49:13;;;;;;;96.00;22.88;;;5.80;99.90;;;;;;5116083;28;20046;-72
2022/01/14 01:51:41;;;;;;;104.80;23.65;;;5.80;99.90;;;;;;5097840;28;20126;-73
2022/01/14 01:54:06;;;;;;;;;;;5.80;99.90;;;;;;5116230;28;20059;-73
2022/01/14 01:56:32;;;;;;;110.63;23.98;;;5.80;99.90;;;;;;5080501;28;19919;-72
2022/01/14 01:58:58;;;;;;;103.93;21.88;;;5.80;99.90;;;;;;5116052;28;20047;-73
2022/01/14 02:01:26;;;;;;;112.55;25.15;;;5.80;99.90;;;;;;5097680;28;20506;-72
2022/01/14 02:03:55;;;;;;;100.00;22.90;;;5.80;99.90;;;;;;5097563;28;20051;-71
2022/01/14 02:06:23;;;;;;;111.55;24.88;;;5.80;99.90;;;;;;5098085;28;20123;-72
2022/01/14 02:08:50;;;;;;;106.57;23.63;;;5.80;99.90;;;;;;5081228;28;20120;-70
2022/01/14 02:11:16;;;;;;;93.20;22.17;;;5.80;99.90;;;;;;5115704;28;20047;-73
2022/01/14 02:13:43;;;;;;;102.47;23.42;;;5.80;99.90;;;;;;5097415;28;20051;-73
2022/01/14 02:26:54;;;;;;;107.18;22.30;;;5.80;99.90;;;;;;5065944;28;20136;-73
2022/01/14 02:29:23;;;;;;;105.18;22.90;;;5.80;99.90;;;;;;5097232;28;20134;-73
2022/01/14 02:31:49;;;;;;;106.70;23.02;;;5.90;99.90;;;;;;5080233;28;20055;-74
2022/01/14 02:34:16;;;;;;;117.07;23.70;;;5.90;99.90;;;;;;5096870;28;20058;-72
2022/01/14 02:36:47;;;;;;;102.10;23.27;;;5.90;99.90;;;;;;5097254;28;20110;-72
2022/01/14 02:39:14;;;;;;;104.65;22.60;;;5.90;99.90;;;;;;5114769;28;20280;-73
2022/01/14 02:41:42;;;;;;;94.47;22.73;;;5.90;99.90;;;;;;5096619;28;20365;-72
2022/01/14 02:44:11;;;;;;;110.43;23.35;;;5.90;99.90;;;;;;5096548;28;20134;-72
2022/01/14 02:46:48;;;;;;;104.60;23.08;;;5.90;99.90;;;;;;5114206;28;20047;-72
2022/01/14 02:49:14;;;;;;;112.10;23.35;;;5.90;99.90;;;;;;5114741;28;20083;-72
2022/01/14 02:51:40;;;;;;;99.68;21.65;;;5.90;99.90;;;;;;5096563;28;20075;-72
2022/01/14 02:54:15;;;;;;;101.97;22.92;;;5.90;99.90;;;;;;5095755;28;20056;-72
2022/01/14 02:56:47;;;;;;;117.30;24.92;;;5.90;99.90;;;;;;5096525;28;20047;-72
2022/01/14 02:59:16;;;;;;;114.53;22.80;;;5.80;99.90;;;;;;5096127;28;20116;-71
2022/01/14 03:01:44;;;;;;;101.63;22.92;;;5.80;99.90;;;;;;5114412;28;20051;-72
2022/01/14 03:04:11;;;;;;;96.72;23.38;;;5.90;99.90;;;;;;5114452;28;20043;-72
2022/01/14 03:06:36;;;;;;;95.68;23.02;;;5.90;99.90;;;;;;5113235;28;20066;-72
2022/01/14 03:09:03;;;;;;;102.60;23.92;;;5.90;99.90;;;;;;5096359;28;20043;-72
2022/01/14 03:11:30;;;;;;;100.03;23.60;;;5.80;99.90;;;;;;5096379;28;20054;-74
2022/01/14 03:13:57;;;;;;;105.82;23.70;;;5.80;99.90;;;;;;5096763;28;20506;-73
2022/01/14 03:16:24;;;;;;;110.47;24.95;;;5.80;99.90;;;;;;5114333;28;20043;-72
2022/01/14 03:18:52;;;;;;;109.57;25.25;;;5.80;99.90;;;;;;5096140;28;20092;-72
2022/01/14 03:21:27;;;;;;;100.05;24.10;;;5.90;99.90;;;;;;5113922;28;20105;-72
2022/01/14 03:24:04;;;;;;;99.05;24.02;;;5.80;99.90;;;;;;5095697;28;20063;-72
2022/01/14 03:26:30;;;;;;;103.68;25.27;;;5.80;99.90;;;;;;5095734;28;20047;-72
2022/01/14 03:28:56;;;;;;;104.90;23.17;;;5.90;99.90;;;;;;5095738;28;20051;-71
2022/01/14 03:31:21;;;;;;;100.90;22.83;;;5.90;99.90;;;;;;5079456;28;20075;-73
2022/01/14 03:33:47;;;;;;;90.07;22.50;;;5.90;99.90;;;;;;5113435;28;20160;-73
2022/01/14 03:36:13;;;;;;;103.20;24.38;;;5.90;99.90;;;;;;5113827;28;20039;-73
2022/01/14 03:38:39;;;;;;;89.45;23.55;;;5.90;99.90;;;;;;5078302;28;20047;-73
2022/01/14 03:41:06;;;;;;;97.40;22.35;;;5.90;99.90;;;;;;5112449;28;20126;-73
2022/01/14 03:43:33;;;;;;;104.50;25.15;;;5.80;99.90;;;;;;5095471;28;20044;-73
2022/01/14 03:45:59;;;;;;;100.60;23.77;;;5.80;99.90;;;;;;5113578;28;20044;-73
2022/01/14 03:48:25;;;;;;;102.18;23.65;;;5.90;99.90;;;;;;5095505;28;20142;-73
2022/01/14 03:50:50;;;;;;;84.63;22.92;;;5.80;99.90;;;;;;5112357;28;20388;-72
2022/01/14 03:53:17;;;;;;;93.40;22.80;;;5.90;99.90;;;;;;5113571;28;20130;-73
2022/01/14 03:55:45;;;;;;;91.95;21.90;;;5.90;99.90;;;;;;5113112;28;20047;-73
2022/01/14 03:58:10;;;;;;;90.35;21.73;;;5.90;99.90;;;;;;5112617;28;20048;-72
2022/01/14 04:00:37;;;;;;;88.47;22.33;;;5.90;99.90;;;;;;5112262;28;20096;-72
2022/01/14 04:03:06;;;;;;;88.20;21.98;;;5.90;99.90;;;;;;5113351;28;20047;-72
2022/01/14 04:05:32;;;;;;;92.40;22.40;;;5.90;99.90;;;;;;5113660;28;20047;-72
2022/01/14 04:07:58;;;;;;;87.70;21.55;;;5.90;99.90;;;;;;5113467;28;20115;-72
2022/01/14 04:10:26;;;;;;;72.32;19.52;;;5.90;99.90;;;;;;5077922;28;20047;-72
2022/01/14 04:13:00;;;;;;;84.10;21.02;;;5.90;99.90;;;;;;5094980;28;20047;-73
2022/01/14 04:15:41;;;;;;;77.38;19.00;;;5.80;99.90;;;;;;5112977;28;20048;-71
2022/01/14 04:18:13;;;;;;;73.50;18.80;;;5.90;99.90;;;;;;5112389;28;20054;-72
2022/01/14 04:20:40;;;;;;;76.97;19.70;;;5.90;99.90;;;;;;5113791;28;20380;-71
2022/01/14 04:23:06;;;;;;;82.45;21.25;;;5.80;99.90;;;;;;5112871;28;20437;-73
2022/01/14 04:25:34;;;;;;;89.15;20.45;;;5.80;99.90;;;;;;5095318;28;20048;-73
2022/01/14 04:28:00;;;;;;;80.65;20.75;;;5.80;99.90;;;;;;5095269;28;20051;-73
2022/01/14 04:30:26;;;;;;;78.72;20.15;;;5.80;99.90;;;;;;5112948;28;20047;-73
2022/01/14 04:32:52;;;;;;;80.40;20.65;;;5.80;99.90;;;;;;5112065;28;20108;-73
2022/01/14 04:35:18;;;;;;;82.78;20.08;;;5.90;99.90;;;;;;5112667;28;20050;-73
2022/01/14 04:37:44;;;;;;;76.45;19.70;;;5.80;99.90;;;;;;5094847;28;20040;-73
2022/01/14 04:40:12;;;;;;;76.78;21.35;;;5.80;99.90;;;;;;5094631;28;20044;-73
2022/01/14 04:42:43;;;;;;;79.50;20.80;;;5.80;99.90;;;;;;5077238;28;20039;-71
2022/01/14 04:45:11;;;;;;;95.70;22.05;;;5.80;99.90;;;;;;5094239;28;20048;-73
2022/01/14 04:47:46;;;;;;;85.90;20.98;;;5.80;99.90;;;;;;5094395;28;20047;-71
2022/01/14 04:50:14;;;;;;;92.57;23.17;;;5.90;99.90;;;;;;5112352;28;20131;-71
2022/01/14 04:52:42;;;;;;;86.38;22.05;;;5.70;99.90;;;;;;5094394;28;20036;-72
2022/01/14 04:55:10;;;;;;;93.28;21.30;;;5.80;99.90;;;;;;5094336;28;20061;-72
2022/01/14 04:57:36;;;;;;;84.68;21.10;;;5.80;99.90;;;;;;5094515;28;20051;-70
2022/01/14 05:00:08;;;;;;;83.57;21.45;;;5.80;99.90;;;;;;5112538;28;20054;-71
2022/01/14 05:02:35;;;;;;;89.38;21.73;;;5.80;99.90;;;;;;5094756;28;20059;-71
2022/01/14 05:05:09;;;;;;;83.85;20.42;;;5.70;99.90;;;;;;5095399;28;20189;-72
2022/01/14 05:07:35;;;;;;;87.40;19.98;;;5.80;99.90;;;;;;5112669;28;20035;-71
2022/01/14 05:12:53;;;;;;;81.47;20.90;;;5.70;99.90;;;;;;5067449;28;20433;-71
2022/01/14 05:15:19;;;;;;;89.43;20.25;;;5.70;99.90;;;;;;5080985;28;20063;-72
2022/01/14 05:17:46;;;;;;;76.53;21.10;;;5.70;99.90;;;;;;5098361;28;20040;-71
2022/01/14 05:20:13;;;;;;;81.80;19.60;;;5.70;99.90;;;;;;5116071;28;20277;-71
2022/01/14 05:22:39;;;;;;;79.28;20.77;;;5.70;99.90;;;;;;5115235;28;20055;-71
2022/01/14 05:25:07;;;;;;;83.40;20.33;;;5.70;99.90;;;;;;5116667;28;20063;-72
2022/01/14 05:27:33;;;;;;;96.45;21.52;;;5.70;99.90;;;;;;5116175;28;20090;-71
2022/01/14 05:29:59;;;;;;;79.25;19.13;;;5.60;99.90;;;;;;5098169;28;20059;-71
2022/01/14 05:32:26;;;;;;;84.25;19.80;;;5.70;99.90;;;;;;5098345;28;20051;-72
2022/01/14 05:34:52;;;;;;;80.00;20.00;;;5.60;99.90;;;;;;5098490;28;20048;-71
2022/01/14 05:37:18;;;;;;;81.90;20.02;;;5.70;99.90;;;;;;5080861;28;20035;-73
2022/01/14 05:39:44;;;;;;;71.40;20.15;;;5.70;99.90;;;;;;5116387;28;20047;-74
2022/01/14 05:42:10;;;;;;;77.18;20.75;;;5.70;99.90;;;;;;5115941;28;20044;-72
2022/01/14 05:44:37;;;;;;;72.60;19.00;;;5.70;99.90;;;;;;5116185;28;20036;-73
2022/01/14 05:47:04;;;;;;;69.45;18.30;;;5.70;99.90;;;;;;5116445;28;20050;-72
2022/01/14 05:49:30;;;;;;;75.57;19.67;;;5.60;99.90;;;;;;5115857;28;20054;-73
2022/01/14 05:51:55;;;;;;;75.75;19.42;;;5.60;99.90;;;;;;5081335;28;20126;-72
2022/01/14 05:54:21;;;;;;;70.65;19.42;;;5.70;99.90;;;;;;5098118;28;20377;-73
2022/01/14 05:56:48;;;;;;;73.53;19.52;;;5.70;99.90;;;;;;5097585;28;20046;-72
2022/01/14 05:59:14;;;;;;;76.60;19.95;;;5.60;99.90;;;;;;5097788;28;20512;-74
2022/01/14 06:01:41;;;;;;;69.97;18.55;;;5.70;99.90;;;;;;5098033;28;20048;-72
2022/01/14 06:04:07;;;;;;;75.13;18.43;;;5.70;99.90;;;;;;5114342;28;20056;-72
2022/01/14 06:06:34;;;;;;;80.93;19.02;;;5.70;99.90;;;;;;5080327;28;20483;-73
2022/01/14 06:09:01;;;;;;;78.40;20.17;;;5.70;99.90;;;;;;5097635;28;20044;-72
2022/01/14 06:11:26;;;;;;;82.53;19.70;;;5.70;99.90;;;;;;5115969;28;20039;-72
2022/01/14 06:13:53;;;;;;;74.80;18.88;;;5.70;99.90;;;;;;5097761;28;20383;-72
2022/01/14 06:16:19;;;;;;;74.25;19.88;;;5.70;99.90;;;;;;5097375;28;20048;-71
2022/01/14 06:18:46;;;;;;;73.43;20.10;;;5.60;99.90;;;;;;5080044;28;20047;-71
2022/01/14 06:21:12;;;;;;;68.70;19.13;;;5.70;99.90;;;;;;5114202;28;20525;-72
2022/01/14 06:23:38;;;;;;;68.05;19.05;;;5.60;99.90;;;;;;5115069;28;20050;-72
2022/01/14 06:26:04;;;;;;;76.68;19.58;;;5.60;99.90;;;;;;5115429;28;20054;-73
2022/01/14 06:28:30;;;;;;;72.75;19.70;;;5.60;99.90;;;;;;5115217;28;20402;-73
2022/01/14 06:30:56;;;;;;;70.68;18.23;;;5.60;99.90;;;;;;5113602;28;20131;-73
2022/01/14 06:33:22;;;;;;;72.38;19.50;;;5.60;99.90;;;;;;5115155;28;20170;-73
2022/01/14 06:35:49;;;;;;;79.35;20.27;;;5.60;99.90;;;;;;5096816;28;20494;-71
2022/01/14 06:38:17;;;;;;;71.97;20.25;;;5.60;99.90;;;;;;5097178;28;20122;-72
2022/01/14 06:40:43;;;;;;;69.60;19.55;;;5.60;99.90;;;;;;5113493;28;20104;-73
2022/01/14 06:43:09;;;;;;;75.18;20.98;;;5.60;99.90;;;;;;5114886;28;20091;-72
2022/01/14 06:45:35;;;;;;;67.07;19.30;;;5.60;99.90;;;;;;5114717;28;20054;-72
2022/01/14 06:48:00;;;;;;;67.85;19.33;;;5.60;99.90;;;;;;5097302;28;20051;-72
2022/01/14 06:50:27;;;;;;;65.78;18.60;;;5.60;99.90;;;;;;5079356;28;20373;-72
2022/01/14 06:52:53;;;;;;;67.35;19.45;;;5.60;99.90;;;;;;5113844;28;20050;-71
2022/01/14 06:55:18;;;;;;;59.75;17.63;;;5.60;99.90;;;;;;5114462;28;20044;-72
2022/01/14 06:57:44;;;;;;;76.40;21.25;;;5.60;99.90;;;;;;5113324;28;20427;-72
2022/01/14 07:00:13;;;;;;;76.80;19.58;;;5.60;99.90;;;;;;5114579;28;20043;-72
2022/01/14 07:02:39;;;;;;;67.50;18.25;;;5.60;99.90;;;;;;5114185;28;20140;-72
2022/01/14 07:05:06;;;;;;;69.10;21.15;;;5.60;99.90;;;;;;5096507;28;20146;-73
2022/01/14 07:07:33;;;;;;;65.88;19.33;;;5.70;99.90;;;;;;5114242;28;20047;-70
2022/01/14 07:09:59;;;;;;;56.30;18.25;;;5.70;99.90;;;;;;5115245;28;20308;-72
2022/01/14 07:12:26;;;;;;;64.82;19.25;;;5.70;99.90;;;;;;5112527;28;20560;-72
2022/01/14 07:14:53;;;;;;;67.70;18.48;;;5.70;99.90;;;;;;5096084;28;20121;-72
2022/01/14 07:17:23;;;;;;;64.00;18.55;;;5.70;99.90;;;;;;5114252;28;20083;-72
2022/01/14 07:19:52;;;;;;;59.50;18.70;;;5.70;99.90;;;;;;5112844;28;20046;-73
2022/01/14 07:22:18;;;;;;;54.45;18.90;;;5.70;99.90;;;;;;5112921;28;20492;-72
2022/01/14 07:24:44;;;;;;;62.63;19.63;;;5.70;99.90;;;;;;5113601;28;20135;-72
2022/01/14 07:27:11;;;;;;;63.45;19.35;;;5.70;99.90;;;;;;5113984;28;20118;-73
2022/01/14 07:29:36;;;;;;;55.92;17.95;;;5.70;99.90;;;;;;5113966;28;20104;-72
2022/01/14 07:32:03;;;;;;;58.92;18.92;;;5.70;99.90;;;;;;5096390;28;20047;-73
2022/01/14 07:34:29;;;;;;;56.45;19.45;;;5.70;99.90;;;;;;5113344;28;20043;-72
2022/01/14 07:36:54;;;;;;;57.53;19.48;;;5.70;99.90;;;;;;5113674;28;20039;-73
2022/01/14 07:39:20;;;;;;;74.40;20.60;;;5.70;99.90;;;;;;5114126;28;20054;-73
2022/01/14 07:41:46;;;;;;;59.05;18.48;;;5.70;99.90;;;;;;5113658;28;20170;-72
2022/01/14 07:44:13;;;;;;;59.38;18.50;;;5.70;99.90;;;;;;5113254;28;20523;-73
2022/01/14 07:46:39;;;;;;;57.50;17.85;;;5.70;99.90;;;;;;5112260;28;20075;-74
2022/01/14 07:49:04;;;;;;;60.05;19.58;;;5.80;99.90;;;;;;5078535;28;20070;-73
2022/01/14 07:51:30;;;;;;;59.65;18.80;;;5.80;99.90;;;;;;5095231;28;20040;-74
2022/01/14 07:54:04;;;;;;;51.08;17.70;;;5.80;99.90;;;;;;5078461;28;20065;-73
2022/01/14 07:56:34;;;;;;;52.40;17.85;;;5.80;99.90;;;;;;5114026;28;20050;-73
2022/01/14 07:59:00;;;;;;;45.72;17.98;;;5.80;99.90;;;;;;5113860;28;20059;-73
2022/01/14 08:01:27;;;;;;;51.00;18.13;;;5.80;99.90;;;;;;5095084;28;20488;-73
2022/01/14 08:03:53;;;;;;;50.30;18.35;;;5.80;99.90;;;;;;5111800;28;20548;-73
2022/01/14 08:06:24;;;;;;;54.30;17.73;;;5.80;99.90;;;;;;5113482;28;20055;-73
2022/01/14 08:08:50;;;;;;;46.47;18.02;;;5.80;99.90;;;;;;5095720;28;20460;-72
2022/01/14 08:11:15;;;;;;;48.97;18.58;;;5.80;99.90;;;;;;5112787;28;20047;-72
2022/01/14 08:13:41;;;;;;;51.85;17.75;;;5.90;99.90;;;;;;5095259;28;20044;-73
2022/01/14 08:16:07;;;;;;;49.38;17.17;;;5.90;99.90;;;;;;5113224;28;20152;-72
2022/01/14 08:18:33;;;;;;;51.42;17.83;;;5.90;99.90;;;;;;5111979;28;20127;-73
2022/01/14 08:20:59;;;;;;;60.03;18.48;;;5.90;99.90;;;;;;5113150;28;20084;-72
2022/01/14 08:23:25;;;;;;;49.05;18.33;;;5.90;99.90;;;;;;5095313;28;20200;-72
2022/01/14 08:25:53;;;;;;;48.50;17.48;;;5.90;99.90;;;;;;5113363;28;20059;-71
2022/01/14 08:28:20;;;;;;;47.50;17.25;;;5.90;99.90;;;;;;5114001;28;20070;-71
2022/01/14 08:30:46;;;;;;;42.88;17.73;;;5.90;99.90;;;;;;5079468;28;20130;-72
2022/01/14 08:33:14;;;;;;;46.60;16.33;;;6.00;99.90;;;;;;5095829;28;20119;-74
2022/01/14 08:35:40;;;;;;;55.90;18.52;;;6.00;99.90;;;;;;5112520;28;20468;-72
2022/01/14 08:38:06;;;;;;;51.63;18.05;;;6.00;99.90;;;;;;5095661;28;20073;-72
2022/01/14 08:40:33;;;;;;;50.55;16.38;;;6.00;99.90;;;;;;5095563;28;20180;-71
2022/01/14 08:42:59;;;;;;;46.92;16.98;;;6.10;99.90;;;;;;5095443;28;20047;-71
2022/01/14 08:45:26;;;;;;;44.53;16.50;;;6.10;99.90;;;;;;5112534;28;20043;-71
2022/01/14 08:47:53;;;;;;;50.90;16.10;;;6.10;99.90;;;;;;5111672;28;20165;-73
2022/01/14 08:50:23;;;;;;;;;;;6.10;99.90;;;;;;5114022;28;20361;-73
2022/01/14 08:52:49;;;;;;;43.17;16.55;;;6.20;99.90;;;;;;5112064;28;19990;-71
2022/01/14 08:55:16;;;;;;;43.03;17.13;;;6.20;99.90;;;;;;5111698;28;20055;-71
2022/01/14 08:57:43;;;;;;;37.88;15.60;;;6.30;99.90;;;;;;5094960;28;20119;-71
2022/01/14 09:00:09;;;;;;;47.90;15.48;;;6.20;99.90;;;;;;5112773;28;20101;-71
2022/01/14 09:02:35;;;;;;;40.22;15.95;;;6.30;99.90;;;;;;5095115;28;20039;-72
2022/01/14 09:05:02;;;;;;;39.55;15.70;;;6.30;99.90;;;;;;5111561;28;20044;-72
2022/01/14 09:07:28;;;;;;;48.00;16.52;;;6.30;99.90;;;;;;5094537;28;20070;-72
2022/01/14 09:09:54;;;;;;;45.88;16.20;;;6.40;99.90;;;;;;5111309;28;20044;-72
2022/01/14 09:12:21;;;;;;;39.50;15.95;;;6.30;99.90;;;;;;5111286;28;20262;-72
2022/01/14 09:14:47;;;;;;;42.93;15.13;;;6.40;99.90;;;;;;5094572;28;20151;-72
2022/01/14 09:17:13;;;;;;;44.72;16.10;;;6.50;99.90;;;;;;5112934;28;20044;-72
2022/01/14 09:19:43;;;;;;;46.38;15.27;;;6.50;99.90;;;;;;5077459;28;20052;-73
2022/01/14 09:22:08;;;;;;;47.05;15.18;;;6.60;99.90;;;;;;5112672;28;20075;-72
2022/01/14 09:24:35;;;;;;;46.78;15.23;;;6.60;99.90;;;;;;5112262;28;20509;-72
2022/01/14 09:27:02;;;;;;;32.45;13.27;;;6.60;99.90;;;;;;5094023;28;20055;-72
2022/01/14 09:29:27;;;;;;;42.17;14.52;;;6.60;99.90;;;;;;5112564;28;20399;-73
2022/01/14 09:31:53;;;;;;;42.22;14.35;;;6.70;99.90;;;;;;5112599;28;20118;-72
2022/01/14 09:34:19;;;;;;;42.47;14.25;;;6.70;99.90;;;;;;5111942;28;20112;-72
2022/01/14 09:36:45;;;;;;;39.58;15.25;;;6.80;99.90;;;;;;5076998;28;20048;-73
2022/01/14 09:39:11;;;;;;;45.80;15.07;;;6.80;99.90;;;;;;5112260;28;20047;-72
2022/01/14 09:41:38;;;;;;;34.88;12.90;;;6.80;99.90;;;;;;5094222;28;20122;-72
2022/01/14 09:44:05;;;;;;;42.25;14.65;;;6.80;99.90;;;;;;5093969;28;20122;-72
2022/01/14 09:46:31;;;;;;;35.25;13.70;;;6.90;99.90;;;;;;5094134;28;20055;-71
2022/01/14 09:48:57;;;;;;;37.13;12.82;;;6.90;99.90;;;;;;5112050;28;20043;-72
2022/01/14 09:51:23;;;;;;;34.65;12.82;;;6.90;99.90;;;;;;5094116;28;20073;-71
2022/01/14 09:53:49;;;;;;;39.13;13.75;;;7.00;99.90;;;;;;5077369;28;20048;-71
2022/01/14 09:56:19;;;;;;;41.22;13.10;;;7.00;99.90;;;;;;5094158;28;20052;-72
2022/01/14 09:58:48;;;;;;;42.65;13.15;;;7.10;99.90;;;;;;5080900;28;20076;-72
2022/01/14 10:01:15;;;;;;;35.40;12.55;;;7.10;99.90;;;;;;5097177;28;20047;-73
2022/01/14 10:03:53;;;;;;;38.17;13.00;;;7.10;99.90;;;;;;5115844;28;20089;-73
2022/01/14 10:06:45;;;;;;;42.05;12.70;;;7.20;99.90;;;;;;5116204;28;20134;-72
2022/01/14 10:09:27;;;;;;;32.38;11.85;;;7.20;99.90;;;;;;5080259;28;20126;-71
2022/01/14 10:12:16;;;;;;;35.58;11.68;;;7.20;99.90;;;;;;5114454;28;20038;-72
2022/01/14 10:14:57;;;;;;;32.45;11.20;;;7.20;99.90;;;;;;5097772;28;20047;-73
2022/01/14 10:17:42;;;;;;;36.95;11.50;;;7.20;99.90;;;;;;5115480;28;20040;-72
2022/01/14 10:20:13;;;;;;;34.28;11.57;;;7.30;99.90;;;;;;5080938;28;20052;-72
2022/01/14 10:22:47;;;;;;;33.25;11.60;;;7.50;99.90;;;;;;5097219;28;20109;-72
2022/01/14 10:25:19;;;;;;;32.25;11.02;;;7.50;99.90;;;;;;5115490;28;20055;-73
2022/01/14 10:27:49;;;;;;;34.20;10.90;;;7.30;99.90;;;;;;5097103;28;20059;-73
2022/01/14 10:30:23;;;;;;;23.17;8.90;;;7.40;99.90;;;;;;5079848;28;20051;-74
2022/01/14 10:32:57;;;;;;;31.25;10.82;;;7.40;99.90;;;;;;5115331;28;20426;-73
2022/01/14 10:35:25;;;;;;;27.55;10.10;;;7.40;99.90;;;;;;5115811;28;20390;-73
2022/01/14 10:37:53;;;;;;;29.83;9.93;;;7.50;99.90;;;;;;5079689;28;20055;-73
2022/01/14 10:40:24;;;;;;;29.10;10.93;;;7.50;99.90;;;;;;5096538;28;20082;-73
2022/01/14 10:42:59;;;;;;;29.63;10.00;;;7.50;99.90;;;;;;5079562;28;20043;-73
2022/01/14 10:45:27;;;;;;;39.17;10.50;;;7.50;99.90;;;;;;5115467;28;20051;-73
2022/01/14 10:48:07;;;;;;;27.20;10.25;;;7.50;99.90;;;;;;5096507;28;20267;-73
2022/01/14 10:50:38;;;;;;;31.40;10.13;;;7.40;99.90;;;;;;5080424;28;20055;-73
2022/01/14 10:53:11;;;;;;;27.08;8.88;;;7.50;99.90;;;;;;5115193;28;20051;-73
2022/01/14 10:55:40;;;;;;;30.67;7.60;;;7.50;99.90;;;;;;5079734;28;20441;-73
2022/01/14 10:58:34;;;;;;;21.05;7.38;;;7.60;99.90;;;;;;5114727;28;20043;-74
2022/01/14 11:01:03;;;;;;;27.63;7.75;;;7.60;99.90;;;;;;5083386;28;20407;-72
2022/01/14 11:03:56;;;;;;;41.05;8.80;;;7.60;99.90;;;;;;5096185;28;20046;-73
2022/01/14 11:06:24;;;;;;;24.05;7.63;;;7.60;99.90;;;;;;5096099;28;20039;-73
2022/01/14 11:09:22;;;;;;;27.30;8.45;;;7.70;99.90;;;;;;5114198;28;20047;-73
2022/01/14 11:11:50;;;;;;;27.08;8.57;;;7.70;99.90;;;;;;5080661;28;20110;-74
2022/01/14 11:14:15;;;;;;;;;;;7.70;99.90;;;;;;5096444;28;20130;-73
2022/01/14 11:16:42;;;;;;;23.53;8.47;;;7.30;99.90;;;;;;5114243;28;20011;-73
2022/01/14 11:19:09;;;;;;;24.23;8.00;;;7.70;99.90;;;;;;5114288;28;20039;-73
2022/01/14 11:24:39;;;;;;;20.35;6.95;;;7.60;99.90;;;;;;5053983;28;20071;-74
2022/01/14 11:27:13;;;;;;;22.52;7.63;;;7.60;99.90;;;;;;5104877;28;20085;-73
2022/01/14 11:29:45;;;;;;;20.48;6.78;;;7.60;99.90;;;;;;5114681;28;20089;-72
2022/01/14 11:32:12;;;;;;;24.65;7.43;;;7.70;99.90;;;;;;5095630;28;20138;-72
2022/01/14 11:34:45;;;;;;;21.77;7.33;;;7.60;99.90;;;;;;5113778;28;20510;-72
2022/01/14 11:37:11;;;;;;;25.02;7.65;;;7.70;99.90;;;;;;5114036;28;20046;-75
2022/01/14 11:39:39;;;;;;;23.17;5.85;;;7.70;99.90;;;;;;5114881;28;20062;-74
2022/01/14 11:42:14;;;;;;;18.15;5.25;;;7.70;99.90;;;;;;5078510;28;20126;-73
2022/01/14 11:44:52;;;;;;;27.02;5.60;;;7.70;99.90;;;;;;5078546;28;20042;-71
2022/01/14 11:47:24;;;;;;;23.55;6.75;;;7.70;99.90;;;;;;5095392;28;20053;-72
2022/01/14 11:49:51;;;;;;;19.65;6.15;;;7.70;99.90;;;;;;5095905;28;20063;-74
2022/01/14 11:52:33;;;;;;;20.17;6.15;;;7.70;99.90;;;;;;5079098;28;20059;-75
2022/01/14 11:55:00;;;;;;;22.17;6.95;;;7.60;99.90;;;;;;5113796;28;20051;-71
2022/01/14 11:57:45;;;;;;;19.08;5.68;;;7.60;99.90;;;;;;5095491;28;20040;-73
2022/01/14 12:00:41;;;;;;;23.25;7.45;;;7.50;99.90;;;;;;5078282;28;20407;-72
2022/01/14 12:03:07;;;;;;;22.17;6.22;;;7.50;99.90;;;;;;5113405;28;20050;-72
2022/01/14 12:05:36;;;;;;;20.25;5.47;;;7.50;99.90;;;;;;5096060;28;20051;-73
2022/01/14 12:08:02;;;;;;;23.73;5.82;;;7.50;99.90;;;;;;5095642;28;20344;-73
2022/01/14 12:10:29;;;;;;;18.80;5.32;;;7.50;99.90;;;;;;5113847;28;20043;-71
2022/01/14 12:13:23;;;;;;;20.10;5.88;;;7.50;99.90;;;;;;5095062;28;20075;-73
2022/01/14 12:16:02;;;;;;;20.15;5.38;;;7.50;99.90;;;;;;5113482;28;20127;-72
2022/01/14 12:18:49;;;;;;;17.58;5.80;;;7.50;99.90;;;;;;5113362;28;20043;-73
2022/01/14 12:21:14;;;;;;;;;;;7.50;99.90;;;;;;5113062;28;20050;-73
2022/01/14 12:23:41;;;;;;;16.98;4.57;;;7.50;99.90;;;;;;5077491;28;19924;-72
2022/01/14 12:26:18;;;;;;;16.55;4.78;;;7.50;99.90;;;;;;5112668;28;20047;-73
2022/01/14 12:28:46;;;;;;;17.38;4.50;;;7.50;99.90;;;;;;5095558;28;20039;-73
2022/01/14 12:31:11;;;;;;;;;;;7.50;99.90;;;;;;5095328;28;20054;-73
2022/01/14 12:33:50;;;;;;;20.65;6.53;;;7.60;99.90;;;;;;5094121;28;20225;-74
2022/01/14 12:36:22;;;;;;;24.42;5.75;;;7.50;99.90;;;;;;5095109;28;20184;-73
2022/01/14 12:38:49;;;;;;;19.90;5.22;;;7.50;99.90;;;;;;5095093;28;20058;-74
2022/01/14 12:41:20;;;;;;;19.83;5.25;;;7.60;99.90;;;;;;5112483;28;20036;-73
2022/01/14 12:43:47;;;;;;;17.58;5.03;;;7.60;99.90;;;;;;5095359;28;20109;-74
2022/01/14 12:46:34;;;;;;;21.55;5.78;;;7.60;99.90;;;;;;5113044;28;20054;-73
2022/01/14 12:49:06;;;;;;;15.60;4.85;;;7.60;99.90;;;;;;5112267;28;20053;-74
2022/01/14 12:51:32;;;;;;;18.77;4.90;;;7.60;99.90;;;;;;5114317;28;20035;-73
2022/01/14 12:54:01;;;;;;;12.27;5.10;;;7.60;99.90;;;;;;5115191;28;20054;-75
2022/01/14 12:56:33;;;;;;;18.95;4.32;;;7.60;99.90;;;;;;5115435;28;20082;-73
2022/01/14 12:59:09;;;;;;;16.98;4.07;;;7.50;99.90;;;;;;5116225;28;20099;-75
2022/01/14 13:01:43;;;;;;;20.00;5.05;;;7.60;99.90;;;;;;5098062;28;20042;-75
2022/01/14 13:04:14;;;;;;;14.73;3.53;;;7.60;99.90;;;;;;5112814;28;20559;-74
2022/01/14 13:06:43;;;;;;;19.88;4.18;;;7.60;99.90;;;;;;5115295;28;20047;-75
2022/01/14 13:09:09;;;;;;;14.88;4.05;;;7.60;99.90;;;;;;5096187;28;20075;-73
2022/01/14 13:11:48;;;;;;;26.45;4.78;;;7.60;99.90;;;;;;5098414;28;20059;-76
2022/01/14 13:14:18;;;;;;;13.80;3.67;;;7.50;99.90;;;;;;5100970;28;20047;-74